Time;durP1;ratioP1;P1;durP2;ratioP2;P2;SDS_P1;SDS_P2;PMS_P1;PMS_P2;Temp;Humidity;BMP_temperature;BMP_pressure;BME280_temperature;BME280_humidity;BME280_pressure;Samples;Min_cycle;Max_cycle;Signal;HPM_P1;HPM_P2
2023/01/21 00:00:10;;;;;;;41.70;23.30;;;;;;;-0.17;100.00;98641.46;269330;1272;22553;-87
2023/01/21 00:06:31;;;;;;;23.70;13.40;;;;;;;-0.20;100.00;98633.55;272880;1272;22441;-88
2023/01/21 00:12:32;;;;;;;26.20;12.60;;;;;;;-0.22;100.00;98637.42;272723;1272;22494;-88
2023/01/21 00:18:33;;;;;;;20.60;10.80;;;;;;;-0.19;100.00;98638.53;272877;1271;23200;-87
2023/01/21 00:24:34;;;;;;;23.00;12.00;;;;;;;-0.19;100.00;98636.94;271136;1262;22539;-88
2023/01/21 00:30:36;;;;;;;20.90;10.90;;;;;;;-0.18;100.00;98641.13;268429;1272;25006;-90
2023/01/21 00:36:38;;;;;;;23.50;11.70;;;;;;;-0.19;100.00;98643.84;268840;1272;24466;-89
2023/01/21 00:42:42;;;;;;;24.00;11.80;;;;;;;-0.21;100.00;98643.04;269359;1264;22897;-91
2023/01/21 00:48:44;;;;;;;21.40;11.20;;;;;;;-0.22;100.00;98644.91;272270;1271;22402;-89
2023/01/21 00:54:45;;;;;;;22.90;12.10;;;;;;;-0.21;100.00;98651.27;271164;1272;24647;-90
2023/01/21 01:00:46;;;;;;;22.60;12.10;;;;;;;-0.20;100.00;98649.73;271001;1272;22244;-91
2023/01/21 01:06:47;;;;;;;27.80;15.50;;;;;;;-0.19;100.00;98656.06;272560;1263;23521;-89
2023/01/21 01:12:49;;;;;;;30.80;15.70;;;;;;;-0.19;100.00;98666.77;271337;1272;26288;-90
2023/01/21 01:18:51;;;;;;;33.90;17.80;;;;;;;-0.18;100.00;98669.23;269836;1272;22398;-90
2023/01/21 01:24:52;;;;;;;33.00;17.00;;;;;;;-0.19;100.00;98670.59;272757;1272;22406;-90
2023/01/21 01:31:15;;;;;;;32.00;16.60;;;;;;;-0.20;100.00;98664.31;272908;1272;23029;-89
2023/01/21 01:37:16;;;;;;;32.40;16.50;;;;;;;-0.20;100.00;98656.31;272920;1267;22208;-89
2023/01/21 01:43:25;;;;;;;31.10;16.20;;;;;;;-0.20;100.00;98650.92;272895;1272;22226;-89
2023/01/21 01:49:26;;;;;;;31.40;16.70;;;;;;;-0.22;100.00;98641.77;272845;1270;22499;-90
2023/01/21 01:55:40;;;;;;;37.40;18.40;;;;;;;-0.23;100.00;98630.58;271339;1272;22644;-91
2023/01/21 02:01:41;;;;;;;39.90;19.20;;;;;;;-0.25;100.00;98626.64;269429;1271;22536;-90
2023/01/21 02:07:52;;;;;;;32.60;16.70;;;;;;;-0.27;100.00;98632.39;269395;1272;24348;-90
2023/01/21 02:13:56;;;;;;;33.70;16.80;;;;;;;-0.29;100.00;98629.44;269347;1270;25345;-89
2023/01/21 02:20:16;;;;;;;32.90;16.60;;;;;;;-0.30;100.00;98637.48;268794;1270;22573;-89
2023/01/21 02:26:45;;;;;;;32.20;16.80;;;;;;;-0.30;100.00;98638.09;269463;1270;22605;-90
2023/01/21 02:33:31;;;;;;;27.40;14.50;;;;;;;-0.30;100.00;98635.87;270302;1269;22572;-90
2023/01/21 02:39:54;;;;;;;27.10;14.90;;;;;;;-0.32;100.00;98635.39;268622;1269;22540;-91
2023/01/21 02:46:08;;;;;;;25.10;14.00;;;;;;;-0.32;100.00;98633.52;269758;1269;22619;-92
2023/01/21 02:52:20;;;;;;;20.50;12.20;;;;;;;-0.32;100.00;98630.92;270317;1269;22379;-91
2023/01/21 02:58:39;;;;;;;22.00;11.90;;;;;;;-0.32;100.00;98626.75;270526;1269;22533;-93
2023/01/21 03:05:14;;;;;;;22.60;12.90;;;;;;;-0.32;100.00;98623.77;269518;1259;22718;-91
2023/01/21 03:11:21;;;;;;;20.60;12.30;;;;;;;-0.33;100.00;98614.60;269959;1269;24213;-91
2023/01/21 03:17:26;;;;;;;20.40;11.70;;;;;;;-0.34;100.00;98616.25;269128;1269;22658;-91
2023/01/21 03:23:32;;;;;;;19.40;11.30;;;;;;;-0.35;100.00;98618.17;269783;1269;24190;-89
2023/01/21 03:29:34;;;;;;;20.00;11.30;;;;;;;-0.35;100.00;98618.02;268982;1269;108732;-92
2023/01/21 03:35:40;;;;;;;16.90;10.10;;;;;;;-0.35;100.00;98624.79;268858;1272;23325;-91
2023/01/21 03:41:49;;;;;;;18.60;10.90;;;;;;;-0.37;100.00;98619.79;269111;1272;22513;-90
2023/01/21 03:47:54;;;;;;;20.70;10.70;;;;;;;-0.38;100.00;98630.50;269093;1271;22598;-91
2023/01/21 03:53:56;;;;;;;19.70;11.50;;;;;;;-0.37;100.00;98627.63;269070;1256;25482;-91
2023/01/21 03:59:58;;;;;;;16.20;9.50;;;;;;;-0.36;100.00;98617.75;269551;1272;22537;-91
2023/01/21 04:05:59;;;;;;;21.70;10.50;;;;;;;-0.33;100.00;98622.25;271715;1271;23212;-89
2023/01/21 04:12:00;;;;;;;16.70;9.50;;;;;;;-0.31;100.00;98619.83;272111;1272;22322;-87
2023/01/21 04:18:01;;;;;;;17.30;10.00;;;;;;;-0.30;100.00;98620.27;272876;1272;22300;-89
2023/01/21 04:24:03;;;;;;;16.80;9.90;;;;;;;-0.28;100.00;98620.71;271105;1272;22638;-89
2023/01/21 04:30:05;;;;;;;15.60;9.60;;;;;;;-0.26;100.00;98619.59;270647;1271;22229;-90
2023/01/21 04:36:06;;;;;;;17.20;10.20;;;;;;;-0.29;100.00;98611.61;271040;1272;22746;-89
2023/01/21 04:42:07;;;;;;;13.80;8.60;;;;;;;-0.32;100.00;98609.25;270768;1272;22655;-89
2023/01/21 04:48:08;;;;;;;15.00;8.60;;;;;;;-0.32;100.00;98605.27;271473;1271;22309;-88
2023/01/21 04:54:10;;;;;;;17.30;9.80;;;;;;;-0.31;100.00;98605.71;270035;1272;22641;-88
2023/01/21 05:00:12;;;;;;;14.10;8.90;;;;;;;-0.29;100.00;98608.54;268797;1271;22566;-90
2023/01/21 05:06:13;;;;;;;12.80;7.30;;;;;;;-0.28;100.00;98611.58;268814;1272;22607;-90
2023/01/21 05:12:14;;;;;;;10.90;6.50;;;;;;;-0.29;100.00;98616.26;269064;1262;22545;-91
2023/01/21 05:18:20;;;;;;;11.70;5.70;;;;;;;-0.29;100.00;98616.64;268850;1271;26496;-92
2023/01/21 05:24:22;;;;;;;10.00;5.70;;;;;;;-0.28;100.00;98612.20;268681;1271;22540;-90
2023/01/21 05:30:27;;;;;;;11.10;6.20;;;;;;;-0.29;100.00;98614.02;271678;1272;22449;-91
2023/01/21 05:36:35;;;;;;;9.20;5.60;;;;;;;-0.29;100.00;98614.00;271593;1272;23283;-93
2023/01/21 05:43:08;;;;;;;8.70;5.10;;;;;;;-0.29;100.00;98613.09;269498;1271;22580;-94
2023/01/21 05:49:22;;;;;;;10.60;5.30;;;;;;;-0.27;100.00;98615.84;271710;1273;23887;-92
2023/01/21 05:55:39;;;;;;;8.10;5.20;;;;;;;-0.27;100.00;98619.80;271987;1273;22207;-91
2023/01/21 06:02:01;;;;;;;8.50;4.90;;;;;;;-0.25;100.00;98615.99;272881;1275;23196;-90
2023/01/21 06:16:00;;;;;;;8.70;5.30;;;;;;;-0.20;100.00;98625.30;268684;1273;23555;-91
2023/01/21 06:22:12;;;;;;;8.10;5.20;;;;;;;-0.18;100.00;98632.19;268170;1272;22527;-90
2023/01/21 06:28:32;;;;;;;9.80;5.10;;;;;;;-0.17;100.00;98637.64;271282;1272;24223;-92
2023/01/21 06:34:34;;;;;;;10.70;5.80;;;;;;;-0.17;100.00;98645.30;268297;1272;23424;-89
2023/01/21 06:40:35;;;;;;;11.30;6.20;;;;;;;-0.19;100.00;98647.01;268133;1272;23629;-89
2023/01/21 06:46:36;;;;;;;11.90;6.40;;;;;;;-0.18;100.00;98655.59;268219;1272;22546;-89
2023/01/21 06:52:39;;;;;;;11.80;7.40;;;;;;;-0.16;100.00;98664.05;268834;1272;22654;-90
2023/01/21 06:58:40;;;;;;;13.20;8.00;;;;;;;-0.15;100.00;98671.10;268227;1272;22539;-89
2023/01/21 07:04:44;;;;;;;15.50;8.50;;;;;;;-0.14;100.00;98672.70;272149;1272;22306;-90
2023/01/21 07:11:33;;;;;;;16.00;8.50;;;;;;;-0.13;100.00;98678.91;272378;1272;22864;-92
2023/01/21 07:17:37;;;;;;;15.40;8.20;;;;;;;-0.10;100.00;98689.26;270739;1265;23407;-90
2023/01/21 07:23:41;;;;;;;12.40;7.30;;;;;;;-0.08;100.00;98695.34;272902;1272;22352;-91
2023/01/21 07:29:43;;;;;;;14.50;7.80;;;;;;;-0.07;100.00;98697.30;272543;1271;22591;-91
2023/01/21 07:36:30;;;;;;;12.80;7.90;;;;;;;-0.03;100.00;98704.09;268241;1272;23256;-92
2023/01/21 07:43:05;;;;;;;13.40;8.10;;;;;;;-0.00;100.00;98713.31;272100;1272;22212;-93
2023/01/21 07:49:54;;;;;;;15.40;8.90;;;;;;;0.01;100.00;98718.13;273016;1274;22442;-93
2023/01/21 07:56:58;;;;;;;;;;;;;;;;;;;;;
2023/01/21 08:03:34;;;;;;;16.80;10.40;;;;;;;0.06;100.00;98723.20;272821;1272;22212;-92
2023/01/21 08:09:39;;;;;;;18.40;11.00;;;;;;;0.08;100.00;98725.84;272476;1271;23539;-92
2023/01/21 08:15:41;;;;;;;19.60;11.30;;;;;;;0.12;100.00;98730.41;271080;1272;22353;-93
2023/01/21 08:21:43;;;;;;;20.10;12.10;;;;;;;0.15;100.00;98732.39;271775;1272;25438;-92
2023/01/21 08:27:44;;;;;;;21.50;12.30;;;;;;;0.15;100.00;98732.26;268918;1272;22345;-93
2023/01/21 08:33:46;;;;;;;18.80;10.70;;;;;;;0.18;100.00;98734.67;269072;1272;22545;-91
2023/01/21 08:39:47;;;;;;;23.20;12.40;;;;;;;0.16;100.00;98734.35;269086;1272;22506;-91
2023/01/21 08:45:48;;;;;;;20.00;12.80;;;;;;;0.16;100.00;98743.53;269097;1273;22582;-91
2023/01/21 08:51:52;;;;;;;23.40;11.80;;;;;;;0.21;100.00;98757.35;268366;1272;22551;-91
2023/01/21 08:57:57;;;;;;;20.10;12.70;;;;;;;0.24;100.00;98763.34;269927;1272;23394;-93
2023/01/21 09:04:08;;;;;;;23.10;12.90;;;;;;;0.26;100.00;98769.97;269121;1274;23298;-93
2023/01/21 09:16:48;;;;;;;32.70;14.90;;;;;;;0.24;100.00;98785.73;268322;1271;23074;-90
2023/01/21 09:22:52;;;;;;;38.50;19.20;;;;;;;0.25;100.00;98790.05;268862;1272;22517;-89
2023/01/21 09:28:56;;;;;;;28.60;15.60;;;;;;;0.25;100.00;98793.55;268703;1272;24301;-91
2023/01/21 09:34:57;;;;;;;28.90;16.20;;;;;;;0.25;100.00;98795.23;268348;1272;25377;-90
2023/01/21 09:41:12;;;;;;;30.40;15.90;;;;;;;0.25;100.00;98793.30;269204;1272;23096;-91
2023/01/21 09:47:26;;;;;;;23.70;14.40;;;;;;;0.26;100.00;98793.27;269881;1272;22776;-91
2023/01/21 09:53:40;;;;;;;24.50;14.50;;;;;;;0.26;100.00;98797.45;269112;1272;22542;-91
2023/01/21 09:59:52;;;;;;;29.80;16.40;;;;;;;0.28;100.00;98809.41;269048;1272;25440;-88
2023/01/21 10:06:15;;;;;;;35.00;17.80;;;;;;;0.30;100.00;98812.92;269440;1272;22530;-90
2023/01/21 10:12:59;;;;;;;;;;;;;;;;;;;;;
2023/01/21 10:19:34;;;;;;;30.70;16.90;;;;;;;0.36;100.00;98814.56;268743;1273;22645;-92
2023/01/21 10:25:37;;;;;;;28.70;17.10;;;;;;;0.41;100.00;98820.86;269206;1272;25434;-90
2023/01/21 10:32:08;;;;;;;;;;;;;;;;;;;;;
2023/01/21 10:38:47;;;;;;;;;;;;;;;;;;;;;
2023/01/21 10:45:28;;;;;;;36.20;17.60;;;;;;;0.45;100.00;98816.05;272479;1272;22337;-92
2023/01/21 10:51:52;;;;;;;35.20;16.70;;;;;;;0.47;100.00;98816.77;272236;1261;22579;-93
2023/01/21 10:58:32;;;;;;;33.80;17.50;;;;;;;0.53;100.00;98820.69;270187;1271;24378;-95
2023/01/21 11:04:40;;;;;;;36.80;19.20;;;;;;;0.57;100.00;98823.07;271411;1272;23039;-95
2023/01/21 11:11:25;;;;;;;34.50;18.50;;;;;;;0.60;100.00;98816.84;265820;1271;6100181;-94
2023/01/21 11:17:55;;;;;;;;;;;;;;;;;;;;;
2023/01/21 11:24:52;;;;;;;;;;;;;;;;;;;;;
2023/01/21 11:39:07;;;;;;;30.60;18.00;;;;;;;0.76;100.00;98824.06;271261;1272;22442;-93
2023/01/21 11:45:29;;;;;;;32.30;16.70;;;;;;;0.81;100.00;98820.96;270063;1272;23836;-91
2023/01/21 11:51:31;;;;;;;32.00;17.50;;;;;;;0.84;100.00;98826.80;271820;1272;22870;-92
2023/01/21 11:57:32;;;;;;;33.30;18.70;;;;;;;0.89;100.00;98828.23;272071;1272;22372;-92
2023/01/21 12:03:37;;;;;;;37.40;19.30;;;;;;;0.90;100.00;98830.48;272505;1272;22267;-93
2023/01/21 12:10:13;;;;;;;40.30;21.80;;;;;;;0.96;100.00;98838.26;272599;1274;22238;-95
2023/01/21 12:16:28;;;;;;;42.00;21.40;;;;;;;0.97;100.00;98839.59;272316;1272;22532;-93
2023/01/21 12:31:23;;;;;;;;;;;;;;;;;;;;;
2023/01/21 12:38:28;;;;;;;;;;;;;;;;;;;;;
2023/01/21 13:56:37;;;;;;;49.90;28.90;;;;;;;0.61;100.00;98962.69;267890;1273;22553;-92
2023/01/21 14:03:23;;;;;;;47.80;27.80;;;;;;;0.55;100.00;98960.82;268018;1273;22566;-92
2023/01/21 14:09:40;;;;;;;53.20;28.40;;;;;;;0.51;100.00;98966.31;268047;1273;22696;-94
2023/01/21 14:16:24;;;;;;;53.90;27.40;;;;;;;0.49;100.00;98980.46;267507;1273;23894;-92
2023/01/21 14:23:20;;;;;;;52.30;28.40;;;;;;;0.44;100.00;98990.09;267838;1277;22568;-92
2023/01/21 14:30:04;;;;;;;46.90;27.10;;;;;;;0.43;100.00;98995.09;267769;1273;22570;-92
2023/01/21 14:36:29;;;;;;;41.80;25.50;;;;;;;0.38;100.00;98999.29;267484;1280;22559;-93
2023/01/21 14:50:43;;;;;;;62.50;38.80;;;;;;;0.27;100.00;99032.90;268780;1269;22540;-95
2023/01/21 14:58:00;;;;;;;52.00;28.00;;;;;;;0.25;100.00;99054.45;267664;1282;22688;-96
2023/01/21 15:04:55;;;;;;;52.00;26.90;;;;;;;0.21;100.00;99065.73;267846;1279;22540;-94
2023/01/21 15:28:32;;;;;;;;;;;;;;;;;;;;;
2023/01/21 15:36:11;;;;;;;67.40;34.70;;;;;;;0.10;100.00;99120.20;267424;1279;23732;-94
2023/01/21 17:10:38;;;;;;;110.40;58.40;;;;;;;-0.15;100.00;99207.94;267559;1285;22630;-94
2023/01/21 17:34:35;;;;;;;123.30;62.90;;;;;;;-0.12;100.00;99238.02;263414;1299;22704;-94
2023/01/21 17:58:10;;;;;;;130.70;71.60;;;;;;;-0.10;100.00;99282.27;262005;1298;22672;-94
2023/01/21 18:27:54;;;;;;;139.00;73.20;;;;;;;-0.19;100.00;99320.27;267218;1263;23291;-93
2023/01/21 18:35:04;;;;;;;146.20;77.60;;;;;;;-0.19;100.00;99327.80;267021;1283;22550;-92
2023/01/21 18:41:07;;;;;;;161.50;84.80;;;;;;;-0.21;100.00;99337.63;267147;1283;24304;-92
2023/01/21 18:47:36;;;;;;;135.70;70.80;;;;;;;-0.19;100.00;99344.80;267096;1286;22568;-93
2023/01/21 18:54:06;;;;;;;132.00;72.60;;;;;;;-0.20;100.00;99346.48;267101;1286;22581;-94
2023/01/21 19:07:52;;;;;;;150.30;79.00;;;;;;;-0.20;100.00;99347.13;267122;1264;22597;-92
2023/01/21 19:14:00;;;;;;;138.80;72.40;;;;;;;-0.21;100.00;99355.45;267111;1284;24065;-91
2023/01/21 19:20:07;;;;;;;154.60;79.90;;;;;;;-0.22;100.00;99364.23;267363;1277;22569;-92
2023/01/21 19:26:36;;;;;;;163.80;83.50;;;;;;;-0.20;100.00;99373.39;268035;1276;25389;-92
2023/01/21 19:33:08;;;;;;;167.60;83.40;;;;;;;-0.20;100.00;99382.44;268203;1279;22590;-92
2023/01/21 19:47:41;;;;;;;176.30;90.30;;;;;;;-0.21;100.00;99401.66;266485;1283;24656;-92
2023/01/21 20:40:33;;;;;;;138.20;68.50;;;;;;;-0.22;100.00;99463.13;267970;1272;22618;-91
2023/01/21 20:53:57;;;;;;;138.90;71.70;;;;;;;-0.25;100.00;99466.94;268062;1272;22555;-91
2023/01/21 21:00:50;;;;;;;143.80;75.20;;;;;;;-0.24;100.00;99482.86;268103;1271;22691;-91
2023/01/21 21:06:54;;;;;;;141.60;75.30;;;;;;;-0.22;100.00;99488.10;267755;1273;22695;-91
2023/01/21 21:12:57;;;;;;;152.60;73.40;;;;;;;-0.21;100.00;99492.39;267698;1273;22539;-91
2023/01/21 21:26:55;;;;;;;115.00;61.60;;;;;;;-0.23;100.00;99500.27;267494;1273;22640;-90
2023/01/21 21:33:49;;;;;;;130.80;64.50;;;;;;;-0.25;100.00;99506.77;267881;1256;22564;-91
2023/01/21 21:39:53;;;;;;;126.30;66.10;;;;;;;-0.27;100.00;99512.60;267958;1274;22616;-90
2023/01/21 22:23:00;;;;;;;115.30;59.10;;;;;;;-0.23;100.00;99537.79;267502;1272;24788;-90
2023/01/21 22:29:03;;;;;;;108.00;57.80;;;;;;;-0.22;100.00;99531.86;267530;1272;22669;-90
2023/01/21 22:35:07;;;;;;;110.20;57.30;;;;;;;-0.21;100.00;99536.46;267569;1256;22530;-91
2023/01/21 22:41:15;;;;;;;105.00;53.60;;;;;;;-0.20;100.00;99540.00;267791;1272;22623;-92
2023/01/21 22:47:17;;;;;;;104.60;52.00;;;;;;;-0.20;100.00;99543.77;267783;1272;23445;-90
2023/01/21 22:53:22;;;;;;;97.40;50.20;;;;;;;-0.20;100.00;99544.73;267412;1272;22545;-91
2023/01/21 22:59:24;;;;;;;98.90;48.60;;;;;;;-0.19;100.00;99547.75;267723;1272;22526;-90
2023/01/21 23:05:27;;;;;;;98.00;48.40;;;;;;;-0.20;100.00;99548.61;267822;1272;23172;-90
2023/01/21 23:11:30;;;;;;;96.90;47.70;;;;;;;-0.20;100.00;99550.45;267342;1256;931859;-92
2023/01/21 23:17:31;;;;;;;100.40;49.80;;;;;;;-0.22;100.00;99548.42;267716;1272;22591;-89
2023/01/21 23:23:36;;;;;;;98.10;49.40;;;;;;;-0.25;100.00;99549.23;267650;1272;22592;-92
2023/01/21 23:29:38;;;;;;;89.70;47.50;;;;;;;-0.28;100.00;99552.48;267437;1272;24244;-90
2023/01/21 23:35:42;;;;;;;101.70;48.90;;;;;;;-0.29;100.00;99554.13;267727;1272;22548;-91
2023/01/21 23:41:43;;;;;;;103.40;51.10;;;;;;;-0.31;100.00;99563.34;267639;1272;26114;-91
2023/01/21 23:47:46;;;;;;;92.20;48.20;;;;;;;-0.32;100.00;99569.98;267697;1272;24285;-91
2023/01/21 23:53:50;;;;;;;93.50;47.00;;;;;;;-0.32;100.00;99583.82;268411;1272;22524;-90
2023/01/21 23:59:51;;;;;;;91.40;46.30;;;;;;;-0.35;100.00;99586.91;268810;1272;22530;-91
